Time;durP1;ratioP1;P1;durP2;ratioP2;P2;SDS_P1;SDS_P2;PMS_P1;PMS_P2;Temp;Humidity;BMP_temperature;BMP_pressure;BME280_temperature;BME280_humidity;BME280_pressure;Samples;Min_cycle;Max_cycle;Signal;HPM_P1;HPM_P2
2022/02/24 00:02:19;;;;;;;;;;;;;;;;;;5034384;28;19917;-74
2022/02/24 00:04:45;;;;;;;;;;;;;;;;;;5034689;28;19966;-74
2022/02/24 00:07:10;;;;;;;;;;;;;;;;;;5034390;28;19920;-75
2022/02/24 00:09:35;;;;;;;;;;;;;;;;;;5034280;28;20454;-75
2022/02/24 00:12:04;;;;;;;;;;;;;;;;;;5033056;28;19913;-75
2022/02/24 00:14:30;;;;;;;;;;;;;;;;;;5033842;28;19929;-75
2022/02/24 00:16:55;;;;;;;;;;;;;;;;;;5034187;28;19917;-75
2022/02/24 00:19:21;;;;;;;;;;;;;;;;;;5034217;28;19917;-75
2022/02/24 00:21:46;;;;;;;;;;;;;;;;;;5034155;28;20321;-75
2022/02/24 00:24:11;;;;;;;;;;;;;;;;;;5034159;28;19953;-75
2022/02/24 00:26:37;;;;;;;;;;;;;;;;;;5034084;28;20366;-74
2022/02/24 00:29:03;;;;;;;;;;;;;;;;;;5033835;28;20408;-73
2022/02/24 00:31:28;;;;;;;;;;;;;;;;;;5033817;28;19987;-75
2022/02/24 00:33:54;;;;;;;;;;;;;;;;;;5033958;28;20393;-74
2022/02/24 00:36:19;;;;;;;;;;;;;;;;;;5033848;28;19917;-75
2022/02/24 00:38:44;;;;;;;;;;;;;;;;;;5034009;28;19991;-73
2022/02/24 00:41:10;;;;;;;;;;;;;;;;;;5033948;28;20433;-75
2022/02/24 00:43:35;;;;;;;;;;;;;;;;;;5034014;28;19958;-74
2022/02/24 00:46:01;;;;;;;;;;;;;;;;;;5033841;28;19924;-74
2022/02/24 00:48:26;;;;;;;;;;;;;;;;;;5033818;28;19917;-74
2022/02/24 00:50:51;;;;;;;;;;;;;;;;;;5033716;28;19924;-75
2022/02/24 00:53:17;;;;;;;;;;;;;;;;;;5034066;28;19917;-75
2022/02/24 00:55:44;;;;;;;;;;;;;;;;;;5033688;28;19924;-75
2022/02/24 00:58:09;;;;;;;;;;;;;;;;;;5033998;28;19986;-74
2022/02/24 01:00:34;;;;;;;;;;;;;;;;;;5032692;28;20365;-74
2022/02/24 01:03:00;;;;;;;;;;;;;;;;;;5036293;28;20290;-75
2022/02/24 01:05:26;;;;;;;;;;;;;;;;;;5037765;28;19917;-75
2022/02/24 01:07:51;;;;;;;;;;;;;;;;;;5037943;28;19920;-74
2022/02/24 01:10:16;;;;;;;;;;;;;;;;;;5037927;28;19924;-74
2022/02/24 01:12:42;;;;;;;;;;;;;;;;;;5037744;28;19971;-75
2022/02/24 01:15:08;;;;;;;;;;;;;;;;;;5036147;28;19927;-75
2022/02/24 01:17:36;;;;;;;;;;;;;;;;;;5037617;28;19917;-76
2022/02/24 01:20:06;;;;;;;;;;;;;;;;;;5037601;28;19962;-75
2022/02/24 01:22:32;;;;;;;;;;;;;;;;;;5037486;28;19924;-77
2022/02/24 01:24:57;;;;;;;;;;;;;;;;;;5037588;28;19917;-76
2022/02/24 01:27:22;;;;;;;;;;;;;;;;;;5037426;28;19923;-76
2022/02/24 01:29:48;;;;;;;;;;;;;;;;;;5037361;28;19924;-75
2022/02/24 01:32:13;;;;;;;;;;;;;;;;;;5037329;28;19917;-76
2022/02/24 01:34:39;;;;;;;;;;;;;;;;;;5037285;28;20403;-76
2022/02/24 01:37:04;;;;;;;;;;;;;;;;;;5037211;28;19935;-75
2022/02/24 01:39:30;;;;;;;;;;;;;;;;;;5037163;28;19919;-75
2022/02/24 01:41:55;;;;;;;;;;;;;;;;;;5037246;28;20011;-75
2022/02/24 01:44:22;;;;;;;;;;;;;;;;;;5037105;28;20278;-76
2022/02/24 01:46:47;;;;;;;;;;;;;;;;;;5037379;28;19917;-76
2022/02/24 01:49:13;;;;;;;;;;;;;;;;;;5037316;28;20306;-75
2022/02/24 01:51:38;;;;;;;;;;;;;;;;;;5037121;28;19913;-76
2022/02/24 01:54:04;;;;;;;;;;;;;;;;;;5036898;28;19976;-76
2022/02/24 01:56:30;;;;;;;;;;;;;;;;;;5035634;28;19924;-76
2022/02/24 01:58:56;;;;;;;;;;;;;;;;;;5036821;28;19917;-76
2022/02/24 02:01:21;;;;;;;;;;;;;;;;;;5037204;28;19999;-76
2022/02/24 02:03:48;;;;;;;;;;;;;;;;;;5036746;28;19917;-75
2022/02/24 02:06:14;;;;;;;;;;;;;;;;;;5036698;28;19971;-75
2022/02/24 02:08:39;;;;;;;;;;;;;;;;;;5035439;28;19921;-75
2022/02/24 02:11:05;;;;;;;;;;;;;;;;;;5037415;28;20266;-76
2022/02/24 02:13:34;;;;;;;;;;;;;;;;;;5035717;28;19971;-76
2022/02/24 02:16:00;;;;;;;;;;;;;;;;;;5036278;28;20015;-75
2022/02/24 02:18:25;;;;;;;;;;;;;;;;;;5036619;28;20337;-75
2022/02/24 02:20:51;;;;;;;;;;;;;;;;;;5036856;28;20289;-76
2022/02/24 02:23:17;;;;;;;;;;;;;;;;;;5036386;28;19993;-76
2022/02/24 02:25:42;;;;;;;;;;;;;;;;;;5036491;28;19970;-76
2022/02/24 02:28:08;;;;;;;;;;;;;;;;;;5036351;28;20339;-75
2022/02/24 02:30:33;;;;;;;;;;;;;;;;;;5036288;28;20383;-76
2022/02/24 02:32:59;;;;;;;;;;;;;;;;;;5036719;28;19917;-76
2022/02/24 02:35:26;;;;;;;;;;;;;;;;;;5036111;28;20239;-75
2022/02/24 02:37:52;;;;;;;;;;;;;;;;;;5037500;28;20012;-76
2022/02/24 02:40:18;;;;;;;;;;;;;;;;;;5043906;28;20437;-76
2022/02/24 02:42:43;;;;;;;;;;;;;;;;;;5035995;28;20008;-75
2022/02/24 02:45:09;;;;;;;;;;;;;;;;;;5035996;28;20305;-75
2022/02/24 02:47:35;;;;;;;;;;;;;;;;;;5035909;28;19924;-76
2022/02/24 02:50:00;;;;;;;;;;;;;;;;;;5035907;28;20024;-76
2022/02/24 02:52:25;;;;;;;;;;;;;;;;;;5035851;28;19963;-75
2022/02/24 02:54:54;;;;;;;;;;;;;;;;;;5035703;28;19923;-76
2022/02/24 02:57:20;;;;;;;;;;;;;;;;;;5035796;28;19940;-75
2022/02/24 02:59:46;;;;;;;;;;;;;;;;;;5035602;28;20285;-76
2022/02/24 03:02:11;;;;;;;;;;;;;;;;;;5047025;28;19917;-76
2022/02/24 03:04:37;;;;;;;;;;;;;;;;;;5056154;28;19917;-75
2022/02/24 03:07:02;;;;;;;;;;;;;;;;;;5055505;28;19917;-74
2022/02/24 03:09:29;;;;;;;;;;;;;;;;;;5055454;28;19924;-76
2022/02/24 03:11:55;;;;;;;;;;;;;;;;;;5055650;28;19968;-75
2022/02/24 03:14:21;;;;;;;;;;;;;;;;;;5055269;28;19928;-75
2022/02/24 03:16:46;;;;;;;;;;;;;;;;;;5055541;28;19917;-75
2022/02/24 03:19:12;;;;;;;;;;;;;;;;;;5055226;28;20274;-76
2022/02/24 03:21:37;;;;;;;;;;;;;;;;;;5055227;28;20300;-76
2022/02/24 03:24:03;;;;;;;;;;;;;;;;;;5055262;28;19921;-75
2022/02/24 03:26:28;;;;;;;;;;;;;;;;;;5053894;28;19960;-76
2022/02/24 03:28:54;;;;;;;;;;;;;;;;;;5055160;28;19921;-76
2022/02/24 03:31:19;;;;;;;;;;;;;;;;;;5055156;28;19917;-73
2022/02/24 03:33:45;;;;;;;;;;;;;;;;;;5054983;28;19920;-75
2022/02/24 03:36:11;;;;;;;;;;;;;;;;;;5052493;28;19921;-75
2022/02/24 03:38:36;;;;;;;;;;;;;;;;;;5052274;28;19921;-74
2022/02/24 03:41:02;;;;;;;;;;;;;;;;;;5045463;28;20024;-75
2022/02/24 03:43:27;;;;;;;;;;;;;;;;;;5033033;28;19917;-75
2022/02/24 03:45:53;;;;;;;;;;;;;;;;;;5034308;28;20015;-74
2022/02/24 03:48:18;;;;;;;;;;;;;;;;;;5034558;28;19956;-74
2022/02/24 03:50:44;;;;;;;;;;;;;;;;;;5034734;28;19921;-75
2022/02/24 03:53:09;;;;;;;;;;;;;;;;;;5043761;28;19916;-75
2022/02/24 03:55:34;;;;;;;;;;;;;;;;;;5054565;28;20423;-75
2022/02/24 03:58:00;;;;;;;;;;;;;;;;;;5054731;28;19917;-75
2022/02/24 04:00:25;;;;;;;;;;;;;;;;;;5054711;28;19921;-75
2022/02/24 04:02:51;;;;;;;;;;;;;;;;;;5054493;28;20392;-76
2022/02/24 04:05:16;;;;;;;;;;;;;;;;;;5054442;28;20456;-75
2022/02/24 04:07:42;;;;;;;;;;;;;;;;;;5054350;28;19971;-75
2022/02/24 04:10:08;;;;;;;;;;;;;;;;;;5054265;28;19931;-75
2022/02/24 04:12:33;;;;;;;;;;;;;;;;;;5054483;28;19917;-76
2022/02/24 04:14:58;;;;;;;;;;;;;;;;;;5053993;28;19921;-76
2022/02/24 04:17:24;;;;;;;;;;;;;;;;;;5054434;28;20366;-76
2022/02/24 04:19:49;;;;;;;;;;;;;;;;;;5054713;28;19917;-76
2022/02/24 04:22:15;;;;;;;;;;;;;;;;;;5054331;28;19917;-76
2022/02/24 04:24:40;;;;;;;;;;;;;;;;;;5054365;28;20015;-76
2022/02/24 04:27:06;;;;;;;;;;;;;;;;;;5054084;28;20377;-76
2022/02/24 04:29:32;;;;;;;;;;;;;;;;;;5053983;28;19916;-75
2022/02/24 04:31:57;;;;;;;;;;;;;;;;;;5053990;28;19921;-75
2022/02/24 04:34:23;;;;;;;;;;;;;;;;;;5053852;28;20369;-76
2022/02/24 04:36:48;;;;;;;;;;;;;;;;;;5053514;28;19917;-76
2022/02/24 04:39:13;;;;;;;;;;;;;;;;;;5053892;28;19916;-76
2022/02/24 04:41:39;;;;;;;;;;;;;;;;;;5053873;28;19917;-76
2022/02/24 04:44:04;;;;;;;;;;;;;;;;;;5052514;28;20414;-76
2022/02/24 04:46:31;;;;;;;;;;;;;;;;;;5053632;28;19917;-75
2022/02/24 04:48:57;;;;;;;;;;;;;;;;;;5053664;28;20289;-76
2022/02/24 04:51:22;;;;;;;;;;;;;;;;;;5053724;28;19970;-76
2022/02/24 04:53:48;;;;;;;;;;;;;;;;;;5053644;28;19917;-76
2022/02/24 04:56:13;;;;;;;;;;;;;;;;;;5053568;28;19917;-76
2022/02/24 04:58:39;;;;;;;;;;;;;;;;;;5053712;28;19917;-75
2022/02/24 05:01:04;;;;;;;;;;;;;;;;;;5051527;28;19921;-76
2022/02/24 05:03:29;;;;;;;;;;;;;;;;;;5053568;28;19921;-76
2022/02/24 05:05:55;;;;;;;;;;;;;;;;;;5053204;28;19940;-76
2022/02/24 05:08:20;;;;;;;;;;;;;;;;;;5052220;28;19968;-76
2022/02/24 05:10:46;;;;;;;;;;;;;;;;;;5053559;28;20011;-76
2022/02/24 05:13:11;;;;;;;;;;;;;;;;;;5052161;28;19916;-75
2022/02/24 05:15:36;;;;;;;;;;;;;;;;;;5044675;28;19933;-74
2022/02/24 05:18:02;;;;;;;;;;;;;;;;;;5039846;28;19925;-76
2022/02/24 05:20:28;;;;;;;;;;;;;;;;;;5046702;28;19956;-76
2022/02/24 05:22:53;;;;;;;;;;;;;;;;;;5038766;28;19928;-76
2022/02/24 05:25:19;;;;;;;;;;;;;;;;;;5041490;28;19925;-76
2022/02/24 05:27:45;;;;;;;;;;;;;;;;;;5048531;28;20015;-76
2022/02/24 05:30:11;;;;;;;;;;;;;;;;;;5052385;28;20012;-76
2022/02/24 05:32:37;;;;;;;;;;;;;;;;;;5052605;28;19920;-76
2022/02/24 05:35:03;;;;;;;;;;;;;;;;;;5053564;28;19944;-76
2022/02/24 05:37:28;;;;;;;;;;;;;;;;;;5053189;28;19917;-76
2022/02/24 05:39:54;;;;;;;;;;;;;;;;;;5053293;28;19917;-76
2022/02/24 05:42:20;;;;;;;;;;;;;;;;;;5053272;28;20391;-76
2022/02/24 05:44:46;;;;;;;;;;;;;;;;;;5053180;28;19917;-75
2022/02/24 05:47:11;;;;;;;;;;;;;;;;;;5054021;28;19923;-77
2022/02/24 05:49:37;;;;;;;;;;;;;;;;;;5057033;28;20357;-76
2022/02/24 05:52:03;;;;;;;;;;;;;;;;;;5057000;28;19920;-75
2022/02/24 05:54:29;;;;;;;;;;;;;;;;;;5056775;28;21897;-76
2022/02/24 05:56:55;;;;;;;;;;;;;;;;;;5056880;28;19927;-76
2022/02/24 05:59:20;;;;;;;;;;;;;;;;;;5056766;28;20261;-76
2022/02/24 06:01:46;;;;;;;;;;;;;;;;;;5056780;28;20013;-76
2022/02/24 06:04:11;;;;;;;;;;;;;;;;;;5056853;28;19917;-75
2022/02/24 06:06:37;;;;;;;;;;;;;;;;;;5055633;28;20022;-77
2022/02/24 06:09:02;;;;;;;;;;;;;;;;;;5056709;28;20011;-76
2022/02/24 06:11:28;;;;;;;;;;;;;;;;;;5056576;28;19952;-76
2022/02/24 06:13:53;;;;;;;;;;;;;;;;;;5056508;28;19917;-76
2022/02/24 06:16:19;;;;;;;;;;;;;;;;;;5056729;28;20361;-76
2022/02/24 06:18:44;;;;;;;;;;;;;;;;;;5056447;28;20266;-76
2022/02/24 06:21:10;;;;;;;;;;;;;;;;;;5056394;28;20308;-76
2022/02/24 06:23:35;;;;;;;;;;;;;;;;;;5056376;28;20284;-76
2022/02/24 06:26:01;;;;;;;;;;;;;;;;;;5056370;28;19924;-76
2022/02/24 06:28:26;;;;;;;;;;;;;;;;;;5056174;28;19916;-76
2022/02/24 06:30:51;;;;;;;;;;;;;;;;;;5056303;28;20011;-76
2022/02/24 06:33:17;;;;;;;;;;;;;;;;;;5056332;28;20387;-76
2022/02/24 06:35:42;;;;;;;;;;;;;;;;;;5056291;28;19916;-76
2022/02/24 06:38:08;;;;;;;;;;;;;;;;;;5056081;28;19924;-76
2022/02/24 06:40:33;;;;;;;;;;;;;;;;;;5056282;28;19917;-76
2022/02/24 06:42:59;;;;;;;;;;;;;;;;;;5056003;28;20014;-76
2022/02/24 06:45:25;;;;;;;;;;;;;;;;;;5055980;28;19921;-76
2022/02/24 06:47:50;;;;;;;;;;;;;;;;;;5056151;28;20007;-76
2022/02/24 06:50:16;;;;;;;;;;;;;;;;;;5055915;28;19917;-76
2022/02/24 06:52:42;;;;;;;;;;;;;;;;;;5055843;28;19916;-77
2022/02/24 06:55:08;;;;;;;;;;;;;;;;;;5055718;28;20320;-75
2022/02/24 06:57:37;;;;;;;;;;;;;;;;;;5055734;28;19917;-75
2022/02/24 07:00:03;;;;;;;;;;;;;;;;;;5055114;28;19924;-76
2022/02/24 07:02:29;;;;;;;;;;;;;;;;;;5055653;28;19917;-76
2022/02/24 07:04:54;;;;;;;;;;;;;;;;;;5055622;28;19940;-76
2022/02/24 07:07:19;;;;;;;;;;;;;;;;;;5055651;28;19921;-76
2022/02/24 07:09:45;;;;;;;;;;;;;;;;;;5055535;28;19917;-75
2022/02/24 07:12:10;;;;;;;;;;;;;;;;;;5055463;28;20003;-75
2022/02/24 07:14:36;;;;;;;;;;;;;;;;;;5055208;28;20410;-75
2022/02/24 07:17:01;;;;;;;;;;;;;;;;;;5055460;28;20002;-76
2022/02/24 07:19:27;;;;;;;;;;;;;;;;;;5055353;28;19917;-76
2022/02/24 07:21:52;;;;;;;;;;;;;;;;;;5055300;28;19921;-76
2022/02/24 07:24:17;;;;;;;;;;;;;;;;;;5055232;28;19917;-76
2022/02/24 07:26:43;;;;;;;;;;;;;;;;;;5055180;28;19970;-75
2022/02/24 07:29:08;;;;;;;;;;;;;;;;;;5055072;28;19917;-75
2022/02/24 07:31:34;;;;;;;;;;;;;;;;;;5055077;28;20292;-76
2022/02/24 07:34:04;;;;;;;;;;;;;;;;;;5055093;28;19920;-76
2022/02/24 07:36:30;;;;;;;;;;;;;;;;;;5055062;28;20003;-76
2022/02/24 07:38:56;;;;;;;;;;;;;;;;;;5054981;28;19963;-75
2022/02/24 07:41:21;;;;;;;;;;;;;;;;;;5055090;28;20007;-76
2022/02/24 07:43:46;;;;;;;;;;;;;;;;;;5054862;28;19916;-75
2022/02/24 07:46:12;;;;;;;;;;;;;;;;;;5054797;28;20385;-76
2022/02/24 07:48:37;;;;;;;;;;;;;;;;;;5054662;28;19917;-76
2022/02/24 07:51:03;;;;;;;;;;;;;;;;;;5054933;28;19921;-76
2022/02/24 07:53:31;;;;;;;;;;;;;;;;;;5054682;28;19917;-76
2022/02/24 07:55:56;;;;;;;;;;;;;;;;;;5054497;28;19916;-76
2022/02/24 07:58:22;;;;;;;;;;;;;;;;;;5054993;28;19924;-76
2022/02/24 08:00:47;;;;;;;;;;;;;;;;;;5052867;28;19919;-77
2022/02/24 08:03:13;;;;;;;;;;;;;;;;;;5054017;28;19916;-78
2022/02/24 08:05:38;;;;;;;;;;;;;;;;;;5052797;28;19955;-76
2022/02/24 08:08:04;;;;;;;;;;;;;;;;;;5054209;28;19958;-77
2022/02/24 08:10:30;;;;;;;;;;;;;;;;;;5053607;28;19975;-77
2022/02/24 08:12:55;;;;;;;;;;;;;;;;;;5053974;28;19913;-73
2022/02/24 08:15:21;;;;;;;;;;;;;;;;;;5053728;28;20301;-73
2022/02/24 08:17:48;;;;;;;;;;;;;;;;;;5054100;28;19959;-72
2022/02/24 08:20:14;;;;;;;;;;;;;;;;;;5054091;28;19913;-73
2022/02/24 08:22:41;;;;;;;;;;;;;;;;;;5054125;28;20396;-73
2022/02/24 08:25:08;;;;;;;;;;;;;;;;;;5054028;28;20369;-74
2022/02/24 08:27:37;;;;;;;;;;;;;;;;;;5053965;28;19916;-74
2022/02/24 08:30:10;;;;;;;;;;;;;;;;;;5052720;28;19921;-74
2022/02/24 08:32:36;;;;;;;;;;;;;;;;;;5053881;28;19912;-77
2022/02/24 08:35:02;;;;;;;;;;;;;;;;;;5053727;28;19917;-76
2022/02/24 08:37:28;;;;;;;;;;;;;;;;;;5053831;28;20365;-77
2022/02/24 08:39:54;;;;;;;;;;;;;;;;;;5053781;28;19924;-74
2022/02/24 08:42:22;;;;;;;;;;;;;;;;;;5052885;28;19952;-74
2022/02/24 08:44:57;;;;;;;;;;;;;;;;;;5053775;28;19917;-73
2022/02/24 08:47:44;;;;;;;;;;;;;;;;;;5053602;28;19916;-74
2022/02/24 08:50:10;;;;;;;;;;;;;;;;;;5053844;28;19917;-75
2022/02/24 08:52:36;;;;;;;;;;;;;;;;;;5053611;28;19948;-74
2022/02/24 08:55:01;;;;;;;;;;;;;;;;;;5052279;28;20006;-74
2022/02/24 08:57:27;;;;;;;;;;;;;;;;;;5053541;28;19917;-74
2022/02/24 08:59:52;;;;;;;;;;;;;;;;;;5052646;28;19913;-73
2022/02/24 09:02:18;;;;;;;;;;;;;;;;;;5053589;28;20320;-75
2022/02/24 09:04:44;;;;;;;;;;;;;;;;;;5053708;28;19919;-74
2022/02/24 09:07:09;;;;;;;;;;;;;;;;;;5053550;28;19920;-74
2022/02/24 09:09:34;;;;;;;;;;;;;;;;;;5053744;28;20355;-74
2022/02/24 09:12:01;;;;;;;;;;;;;;;;;;5053365;28;19999;-74
2022/02/24 09:14:27;;;;;;;;;;;;;;;;;;5053190;28;19944;-76
2022/02/24 09:16:52;;;;;;;;;;;;;;;;;;5053361;28;19917;-76
2022/02/24 09:19:21;;;;;;;;;;;;;;;;;;5053003;28;20221;-74
2022/02/24 09:21:47;;;;;;;;;;;;;;;;;;5053507;28;19917;-74
2022/02/24 09:24:12;;;;;;;;;;;;;;;;;;5057477;28;19978;-74
2022/02/24 09:26:38;;;;;;;;;;;;;;;;;;5057851;28;19917;-73
2022/02/24 09:29:05;;;;;;;;;;;;;;;;;;5043742;28;19917;-75
2022/02/24 09:31:30;;;;;;;;;;;;;;;;;;5037401;28;19917;-74
2022/02/24 09:33:56;;;;;;;;;;;;;;;;;;5037421;28;20266;-73
2022/02/24 09:36:21;;;;;;;;;;;;;;;;;;5037263;28;19917;-72
2022/02/24 09:38:46;;;;;;;;;;;;;;;;;;5037519;28;20419;-73
2022/02/24 09:41:13;;;;;;;;;;;;;;;;;;5037276;28;20369;-72
2022/02/24 09:43:38;;;;;;;;;;;;;;;;;;5037335;28;19913;-73
2022/02/24 09:46:05;;;;;;;;;;;;;;;;;;5037286;28;20372;-73
2022/02/24 09:48:33;;;;;;;;;;;;;;;;;;5037071;28;19920;-73
2022/02/24 09:51:00;;;;;;;;;;;;;;;;;;5036868;28;19917;-75
2022/02/24 09:53:30;;;;;;;;;;;;;;;;;;5037058;28;19917;-74
2022/02/24 09:55:56;;;;;;;;;;;;;;;;;;5036685;28;20051;-72
2022/02/24 09:58:21;;;;;;;;;;;;;;;;;;5036923;28;19956;-73
2022/02/24 10:00:48;;;;;;;;;;;;;;;;;;5037097;28;19913;-73
2022/02/24 10:03:44;;;;;;;;;;;;;;;;;;5036817;28;19923;-72
2022/02/24 10:06:10;;;;;;;;;;;;;;;;;;5023968;28;19917;-72
2022/02/24 10:08:45;;;;;;;;;;;;;;;;;;5044951;28;19920;-73
2022/02/24 10:11:22;;;;;;;;;;;;;;;;;;5056605;28;19913;-73
2022/02/24 10:14:06;;;;;;;;;;;;;;;;;;5056535;28;19971;-73
2022/02/24 10:16:33;;;;;;;;;;;;;;;;;;5051535;28;20273;-73
2022/02/24 10:19:09;;;;;;;;;;;;;;;;;;5056344;28;20389;-74
2022/02/24 10:21:35;;;;;;;;;;;;;;;;;;5051333;28;19921;-74
2022/02/24 10:24:00;;;;;;;;;;;;;;;;;;5036461;28;20032;-74
2022/02/24 10:26:26;;;;;;;;;;;;;;;;;;5036183;28;19917;-74
2022/02/24 10:28:52;;;;;;;;;;;;;;;;;;5036032;28;19917;-74
2022/02/24 10:31:19;;;;;;;;;;;;;;;;;;5036057;28;19964;-74
2022/02/24 10:33:52;;;;;;;;;;;;;;;;;;5035144;28;20015;-74
2022/02/24 10:36:20;;;;;;;;;;;;;;;;;;5036069;28;19962;-73
2022/02/24 10:38:58;;;;;;;;;;;;;;;;;;5036159;28;20016;-76
2022/02/24 10:41:43;;;;;;;;;;;;;;;;;;5036153;28;19961;-73
2022/02/24 10:44:13;;;;;;;;;;;;;;;;;;5036260;28;19917;-74
2022/02/24 10:49:40;;;;;;;;;;;;;;;;;;5036264;28;19924;-74
2022/02/24 10:52:12;;;;;;;;;;;;;;;;;;5036349;28;19924;-74
2022/02/24 10:54:38;;;;;;;;;;;;;;;;;;5035980;28;19920;-74
2022/02/24 10:57:35;;;;;;;;;;;;;;;;;;5035831;28;19921;-75
2022/02/24 11:03:16;;;;;;;;;;;;;;;;;;5035718;28;19927;-74
2022/02/24 11:05:50;;;;;;;;;;;;;;;;;;5035494;28;19970;-76
2022/02/24 11:08:28;;;;;;;;;;;;;;;;;;5040709;28;19916;-74
2022/02/24 11:11:06;;;;;;;;;;;;;;;;;;5046705;28;19917;-76
2022/02/24 11:13:59;;;;;;;;;;;;;;;;;;5035452;28;19928;-75
2022/02/24 11:16:34;;;;;;;;;;;;;;;;;;5032911;28;19932;-77
2022/02/24 11:19:14;;;;;;;;;;;;;;;;;;5035323;28;19928;-76
2022/02/24 11:21:46;;;;;;;;;;;;;;;;;;5035288;28;19996;-75
2022/02/24 11:24:26;;;;;;;;;;;;;;;;;;5035473;28;19990;-75
2022/02/24 11:26:54;;;;;;;;;;;;;;;;;;5035546;28;20047;-76
2022/02/24 11:29:27;;;;;;;;;;;;;;;;;;5035100;28;19913;-77
2022/02/24 11:31:55;;;;;;;;;;;;;;;;;;5035480;28;19917;-77
2022/02/24 11:34:46;;;;;;;;;;;;;;;;;;5035083;28;19913;-76
2022/02/24 11:37:34;;;;;;;;;;;;;;;;;;5011845;28;19971;-75
2022/02/24 11:40:09;;;;;;;;;;;;;;;;;;5034840;28;19924;-76
2022/02/24 11:42:46;;;;;;;;;;;;;;;;;;5034931;28;19955;-76
2022/02/24 11:45:26;;;;;;;;;;;;;;;;;;5034956;28;19952;-75
2022/02/24 11:48:01;;;;;;;;;;;;;;;;;;5034795;28;19917;-76
2022/02/24 11:53:31;;;;;;;;;;;;;;;;;;5034713;28;19924;-77
2022/02/24 11:56:09;;;;;;;;;;;;;;;;;;5035013;28;19917;-75
2022/02/24 11:58:53;;;;;;;;;;;;;;;;;;5034495;28;19921;-74
2022/02/24 12:01:36;;;;;;;;;;;;;;;;;;5035465;28;20013;-74
2022/02/24 12:04:05;;;;;;;;;;;;;;;;;;5034368;28;20008;-73
2022/02/24 12:06:38;;;;;;;;;;;;;;;;;;5034451;28;19964;-73
2022/02/24 12:09:20;;;;;;;;;;;;;;;;;;5046272;28;20017;-73
2022/02/24 12:12:02;;;;;;;;;;;;;;;;;;5054372;28;20332;-74
2022/02/24 12:14:33;;;;;;;;;;;;;;;;;;5054114;28;19920;-74
2022/02/24 12:17:08;;;;;;;;;;;;;;;;;;5053555;28;19921;-73
2022/02/24 12:19:57;;;;;;;;;;;;;;;;;;5054336;28;19928;-73
2022/02/24 12:22:30;;;;;;;;;;;;;;;;;;5051904;28;20039;-73
2022/02/24 12:28:29;;;;;;;;;;;;;;;;;;5034089;28;20000;-74
2022/02/24 12:31:00;;;;;;;;;;;;;;;;;;5034108;28;19971;-73
2022/02/24 12:33:26;;;;;;;;;;;;;;;;;;5033894;28;19917;-73
2022/02/24 12:35:51;;;;;;;;;;;;;;;;;;5033017;28;19981;-73
2022/02/24 12:38:29;;;;;;;;;;;;;;;;;;5033891;28;19917;-73
2022/02/24 12:41:03;;;;;;;;;;;;;;;;;;5034553;28;20305;-75
2022/02/24 12:43:32;;;;;;;;;;;;;;;;;;5033828;28;19925;-73
2022/02/24 12:51:31;;;;;;;;;;;;;;;;;;5063184;28;19927;-76
2022/02/24 12:54:02;;;;;;;;;;;;;;;;;;5071734;28;19916;-74
2022/02/24 12:56:35;;;;;;;;;;;;;;;;;;5072486;28;19916;-77
2022/02/24 12:59:11;;;;;;;;;;;;;;;;;;5073416;28;19916;-77
2022/02/24 13:01:40;;;;;;;;;;;;;;;;;;5064758;28;19916;-76
2022/02/24 13:04:12;;;;;;;;;;;;;;;;;;5053487;28;19920;-76
2022/02/24 13:06:59;;;;;;;;;;;;;;;;;;5053397;28;19923;-77
2022/02/24 13:21:47;;;;;;;;;;;;;;;;;;5033561;28;20380;-79
2022/02/24 13:24:40;;;;;;;;;;;;;;;;;;5033338;28;20011;-78
2022/02/24 13:30:15;;;;;;;;;;;;;;;;;;5051645;28;19927;-78
2022/02/24 13:32:43;;;;;;;;;;;;;;;;;;5053203;28;19923;-78
2022/02/24 13:35:31;;;;;;;;;;;;;;;;;;5053259;28;20365;-77
2022/02/24 13:38:04;;;;;;;;;;;;;;;;;;5039872;28;20396;-77
2022/02/24 13:40:50;;;;;;;;;;;;;;;;;;5033460;28;20297;-79
2022/02/24 13:52:22;;;;;;;;;;;;;;;;;;5033379;28;19924;-78
2022/02/24 13:55:21;;;;;;;;;;;;;;;;;;5033379;28;19917;-76
2022/02/24 13:58:24;;;;;;;;;;;;;;;;;;5032979;28;19924;-75
2022/02/24 14:01:08;;;;;;;;;;;;;;;;;;5033294;28;19952;-76
2022/02/24 14:06:55;;;;;;;;;;;;;;;;;;5044509;28;19987;-74
2022/02/24 14:11:56;;;;;;;;;;;;;;;;;;5208086;23;19924;-76
2022/02/24 14:14:22;;;;;;;;;;;;;;;;;;5065732;28;20440;-77
2022/02/24 14:16:49;;;;;;;;;;;;;;;;;;5044641;28;19923;-75
2022/02/24 14:19:15;;;;;;;;;;;;;;;;;;5054302;28;19921;-75
2022/02/24 14:21:43;;;;;;;;;;;;;;;;;;5053768;28;19927;-75
2022/02/24 14:24:09;;;;;;;;;;;;;;;;;;5054787;28;20005;-76
2022/02/24 14:26:35;;;;;;;;;;;;;;;;;;5056153;28;19960;-75
2022/02/24 14:29:00;;;;;;;;;;;;;;;;;;5056228;28;20368;-75
2022/02/24 14:31:25;;;;;;;;;;;;;;;;;;5056195;28;19917;-75
2022/02/24 14:33:51;;;;;;;;;;;;;;;;;;5059302;28;19920;-76
2022/02/24 14:36:17;;;;;;;;;;;;;;;;;;5055945;28;20383;-76
2022/02/24 14:38:43;;;;;;;;;;;;;;;;;;5056362;28;19923;-76
2022/02/24 14:41:09;;;;;;;;;;;;;;;;;;5056335;28;19923;-76
2022/02/24 14:43:34;;;;;;;;;;;;;;;;;;5055943;28;19912;-78
2022/02/24 14:46:00;;;;;;;;;;;;;;;;;;5056000;28;19921;-75
2022/02/24 14:48:28;;;;;;;;;;;;;;;;;;5072496;28;19921;-76
2022/02/24 14:50:58;;;;;;;;;;;;;;;;;;5069199;28;20007;-76
2022/02/24 14:53:23;;;;;;;;;;;;;;;;;;5055544;28;19924;-77
2022/02/24 14:55:49;;;;;;;;;;;;;;;;;;5062351;28;19916;-76
2022/02/24 14:58:14;;;;;;;;;;;;;;;;;;5058746;28;20019;-76
2022/02/24 15:00:40;;;;;;;;;;;;;;;;;;5072593;28;19920;-78
2022/02/24 15:03:06;;;;;;;;;;;;;;;;;;5075629;28;19916;-74
2022/02/24 15:05:32;;;;;;;;;;;;;;;;;;5075382;28;20349;-75
2022/02/24 15:08:01;;;;;;;;;;;;;;;;;;5075043;28;20011;-75
2022/02/24 15:10:27;;;;;;;;;;;;;;;;;;5074137;28;19924;-77
2022/02/24 15:12:53;;;;;;;;;;;;;;;;;;5074683;28;19943;-74
2022/02/24 15:15:19;;;;;;;;;;;;;;;;;;5074757;28;19920;-75
2022/02/24 15:17:48;;;;;;;;;;;;;;;;;;5075075;28;19920;-75
2022/02/24 15:20:16;;;;;;;;;;;;;;;;;;5074686;28;19913;-75
2022/02/24 15:22:42;;;;;;;;;;;;;;;;;;5075054;28;20364;-78
2022/02/24 15:25:07;;;;;;;;;;;;;;;;;;5075139;28;19966;-76
2022/02/24 15:27:34;;;;;;;;;;;;;;;;;;5071599;28;20375;-76
2022/02/24 15:29:59;;;;;;;;;;;;;;;;;;5055055;28;20369;-76
2022/02/24 15:32:25;;;;;;;;;;;;;;;;;;5054811;28;19927;-76
2022/02/24 15:34:50;;;;;;;;;;;;;;;;;;5054977;28;19928;-75
2022/02/24 15:37:15;;;;;;;;;;;;;;;;;;5054868;28;19917;-75
2022/02/24 15:39:41;;;;;;;;;;;;;;;;;;5054953;28;19917;-76
2022/02/24 15:42:06;;;;;;;;;;;;;;;;;;5054830;28;19917;-75
2022/02/24 15:44:32;;;;;;;;;;;;;;;;;;5054748;28;20369;-76
2022/02/24 15:46:57;;;;;;;;;;;;;;;;;;5068473;28;19924;-76
2022/02/24 15:49:23;;;;;;;;;;;;;;;;;;5074878;28;20003;-76
2022/02/24 15:51:48;;;;;;;;;;;;;;;;;;5074685;28;19945;-76
2022/02/24 15:54:14;;;;;;;;;;;;;;;;;;5074570;28;20334;-75
2022/02/24 15:56:39;;;;;;;;;;;;;;;;;;5074225;28;19921;-75
2022/02/24 15:59:05;;;;;;;;;;;;;;;;;;5073939;28;19946;-75
2022/02/24 16:01:30;;;;;;;;;;;;;;;;;;5073849;28;19966;-75
2022/02/24 16:03:56;;;;;;;;;;;;;;;;;;5074405;28;19916;-75
2022/02/24 16:06:21;;;;;;;;;;;;;;;;;;5074292;28;19924;-75
2022/02/24 16:08:47;;;;;;;;;;;;;;;;;;5074019;28;20283;-75
2022/02/24 16:11:13;;;;;;;;;;;;;;;;;;5073904;28;19970;-76
2022/02/24 16:13:39;;;;;;;;;;;;;;;;;;5074196;28;20019;-75
2022/02/24 16:16:04;;;;;;;;;;;;;;;;;;5074148;28;20007;-75
2022/02/24 16:18:30;;;;;;;;;;;;;;;;;;5073879;28;20029;-75
2022/02/24 16:20:55;;;;;;;;;;;;;;;;;;5074146;28;19912;-75
2022/02/24 16:23:21;;;;;;;;;;;;;;;;;;5056152;28;19962;-75
2022/02/24 16:25:47;;;;;;;;;;;;;;;;;;5072857;28;20379;-77
2022/02/24 16:28:12;;;;;;;;;;;;;;;;;;5067559;28;19923;-76
2022/02/24 16:30:38;;;;;;;;;;;;;;;;;;5061113;28;19981;-76
2022/02/24 16:33:04;;;;;;;;;;;;;;;;;;5069595;28;19967;-76
2022/02/24 16:35:30;;;;;;;;;;;;;;;;;;5073886;28;20380;-78
2022/02/24 16:37:56;;;;;;;;;;;;;;;;;;5073799;28;19916;-77
2022/02/24 16:40:21;;;;;;;;;;;;;;;;;;5073787;28;20322;-77
2022/02/24 16:42:47;;;;;;;;;;;;;;;;;;5073844;28;19975;-76
2022/02/24 16:45:13;;;;;;;;;;;;;;;;;;5066602;28;20320;-76
2022/02/24 16:47:38;;;;;;;;;;;;;;;;;;5053973;28;19959;-76
2022/02/24 16:50:04;;;;;;;;;;;;;;;;;;5035658;28;19917;-76
2022/02/24 16:52:30;;;;;;;;;;;;;;;;;;5053623;28;20357;-76
2022/02/24 16:54:55;;;;;;;;;;;;;;;;;;5053594;28;20002;-76
2022/02/24 16:57:21;;;;;;;;;;;;;;;;;;5053907;28;20451;-75
2022/02/24 16:59:47;;;;;;;;;;;;;;;;;;5053582;28;20007;-77
2022/02/24 17:02:12;;;;;;;;;;;;;;;;;;5064259;28;19942;-77
2022/02/24 17:04:38;;;;;;;;;;;;;;;;;;5072349;28;19916;-76
2022/02/24 17:07:05;;;;;;;;;;;;;;;;;;5073500;28;19916;-76
2022/02/24 17:09:30;;;;;;;;;;;;;;;;;;5072712;28;20343;-77
2022/02/24 17:11:56;;;;;;;;;;;;;;;;;;5060090;28;19952;-76
2022/02/24 17:14:22;;;;;;;;;;;;;;;;;;5053419;28;20273;-76
2022/02/24 17:16:48;;;;;;;;;;;;;;;;;;5053452;28;19978;-77
2022/02/24 17:19:13;;;;;;;;;;;;;;;;;;5062603;28;19928;-77
2022/02/24 17:21:40;;;;;;;;;;;;;;;;;;5073570;28;19916;-76
2022/02/24 17:24:07;;;;;;;;;;;;;;;;;;5073405;28;19923;-77
2022/02/24 17:26:36;;;;;;;;;;;;;;;;;;5073355;28;19917;-77
2022/02/24 17:29:02;;;;;;;;;;;;;;;;;;5073863;28;20276;-76
2022/02/24 17:31:28;;;;;;;;;;;;;;;;;;5073301;28;19959;-75
2022/02/24 17:33:54;;;;;;;;;;;;;;;;;;5073414;28;19924;-78
2022/02/24 17:36:19;;;;;;;;;;;;;;;;;;5055174;28;19916;-77
2022/02/24 17:38:46;;;;;;;;;;;;;;;;;;5072673;28;19920;-77